Time;durP1;ratioP1;P1;durP2;ratioP2;P2;SDS_P1;SDS_P2;PMS_P1;PMS_P2;Temp;Humidity;BMP_temperature;BMP_pressure;BME280_temperature;BME280_humidity;BME280_pressure;Samples;Min_cycle;Max_cycle;Signal;HPM_P1;HPM_P2
2022/09/12 00:01:48;;;;;;;6.65;5.90;;;;;;;13.35;100.00;99595.91;5092589;28;20020;-80
2022/09/12 00:04:14;;;;;;;6.65;5.32;;;;;;;13.37;100.00;99594.88;5093404;28;20056;-80
2022/09/12 00:06:39;;;;;;;6.55;5.78;;;;;;;13.29;100.00;99583.19;5094051;28;20043;-80
2022/09/12 00:09:12;;;;;;;7.18;5.82;;;;;;;13.34;100.00;99599.47;5093698;28;20028;-80
2022/09/12 00:11:40;;;;;;;7.10;5.75;;;;;;;13.30;100.00;99598.78;5093827;28;20051;-80
2022/09/12 00:14:08;;;;;;;6.30;5.18;;;;;;;13.26;100.00;99605.13;5093541;28;20028;-80
2022/09/12 00:16:35;;;;;;;6.53;5.47;;;;;;;13.22;100.00;99598.34;5093679;28;20378;-80
2022/09/12 00:19:01;;;;;;;7.88;6.13;;;;;;;13.17;100.00;99600.41;5093618;28;20024;-80
2022/09/12 00:21:27;;;;;;;8.40;6.38;;;;;;;13.11;100.00;99585.09;5093528;28;20368;-80
2022/09/12 00:23:53;;;;;;;10.10;7.05;;;;;;;13.09;100.00;99598.22;5093530;28;20012;-80
2022/09/12 00:26:20;;;;;;;11.65;7.35;;;;;;;13.10;100.00;99592.06;5093344;28;20024;-80
2022/09/12 00:28:46;;;;;;;9.25;6.85;;;;;;;13.10;100.00;99599.91;5093322;28;20062;-80
2022/09/12 00:31:15;;;;;;;8.13;6.75;;;;;;;13.07;100.00;99607.94;5093200;28;20023;-80
2022/09/12 00:33:41;;;;;;;7.85;6.22;;;;;;;13.02;100.00;99607.38;5093362;28;20032;-80
2022/09/12 00:36:09;;;;;;;8.85;6.68;;;;;;;13.02;100.00;99609.13;5093214;28;20027;-80
2022/09/12 00:38:37;;;;;;;10.60;6.32;;;;;;;13.00;100.00;99611.84;5093151;28;20020;-80
2022/09/12 00:41:04;;;;;;;9.60;6.78;;;;;;;12.94;100.00;99607.81;5093008;28;20156;-80
2022/09/12 00:43:29;;;;;;;7.18;6.10;;;;;;;12.97;100.00;99612.84;5093091;28;20072;-80
2022/09/12 00:45:56;;;;;;;10.80;5.72;;;;;;;12.94;100.00;99609.59;5093493;28;20020;-80
2022/09/12 00:48:41;;;;;;;8.38;6.10;;;;;;;12.96;100.00;99610.31;5093279;28;20512;-80
2022/09/12 00:51:07;;;;;;;10.10;6.35;;;;;;;12.96;100.00;99603.31;5092738;28;20070;-80
2022/09/12 00:53:33;;;;;;;9.18;6.07;;;;;;;13.04;100.00;99613.34;5092829;28;20036;-80
2022/09/12 00:55:58;;;;;;;8.00;6.38;;;;;;;13.05;100.00;99611.56;5092554;28;20034;-80
2022/09/12 00:58:29;;;;;;;10.50;5.68;;;;;;;13.05;100.00;99614.19;5092632;28;20027;-80
2022/09/12 01:00:56;;;;;;;6.78;5.72;;;;;;;13.05;100.00;99611.56;5093050;28;20027;-80
2022/09/12 01:03:22;;;;;;;7.68;5.90;;;;;;;13.06;100.00;99611.50;5092563;28;20024;-80
2022/09/12 01:06:06;;;;;;;7.00;5.50;;;;;;;13.09;100.00;99610.47;5091932;28;20477;-80
2022/09/12 01:08:33;;;;;;;8.60;6.07;;;;;;;13.07;100.00;99607.13;5092634;28;20063;-80
2022/09/12 01:10:58;;;;;;;6.70;5.32;;;;;;;13.19;100.00;99624.72;5091270;28;20076;-80
2022/09/12 01:13:24;;;;;;;8.07;6.10;;;;;;;13.17;100.00;99608.25;5092757;28;20103;-80
2022/09/12 01:15:50;;;;;;;8.95;6.13;;;;;;;13.12;100.00;99605.91;5092659;28;20060;-80
2022/09/12 01:18:41;;;;;;;6.55;5.60;;;;;;;13.17;100.00;99609.09;5092364;28;20043;-80
2022/09/12 01:21:22;;;;;;;10.70;5.72;;;;;;;13.09;100.00;99597.38;5029659;28;20463;-80
2022/09/12 01:24:25;;;;;;;7.10;5.75;;;;;;;13.13;100.00;99615.44;5029716;28;20049;-80
2022/09/12 01:26:57;;;;;;;6.80;5.82;;;;;;;13.07;100.00;99612.34;5029759;28;20434;-80
2022/09/12 01:30:00;;;;;;;8.40;5.93;;;;;;;13.08;100.00;99620.09;5029567;28;20030;-80
2022/09/12 01:32:41;;;;;;;8.35;5.85;;;;;;;13.07;100.00;99607.13;5029678;28;20125;-80
2022/09/12 01:35:15;;;;;;;6.93;6.07;;;;;;;13.11;100.00;99619.91;5029807;28;20036;-80
2022/09/12 01:38:01;;;;;;;8.18;5.60;;;;;;;13.12;100.00;99612.91;5029670;28;20490;-80
2022/09/12 01:40:32;;;;;;;9.25;5.53;;;;;;;13.16;100.00;99624.88;5013067;28;20021;-80
2022/09/12 01:43:19;;;;;;;7.63;5.70;;;;;;;13.19;100.00;99622.09;5029741;28;20065;-80
2022/09/12 01:46:08;;;;;;;7.32;5.85;;;;;;;13.19;100.00;99622.94;5029648;28;20462;-80
2022/09/12 01:48:43;;;;;;;8.27;5.78;;;;;;;13.17;100.00;99624.78;5029593;28;20056;-80
2022/09/12 01:51:16;;;;;;;6.93;5.78;;;;;;;13.13;100.00;99617.22;5012722;28;20073;-80
2022/09/12 01:53:47;;;;;;;8.75;5.60;;;;;;;13.15;100.00;99617.97;5029442;28;20026;-80
2022/09/12 01:56:21;;;;;;;6.45;5.22;;;;;;;13.11;100.00;99619.91;5029237;28;20033;-80
2022/09/12 01:59:16;;;;;;;6.70;5.10;;;;;;;13.01;100.00;99620.53;5076747;28;20067;-80
2022/09/12 02:01:49;;;;;;;6.40;5.40;;;;;;;12.90;100.00;99619.38;5092140;28;20510;-80
2022/09/12 02:05:02;;;;;;;6.13;5.53;;;;;;;12.87;100.00;99621.31;5091629;28;20157;-80
2022/09/12 02:07:36;;;;;;;8.45;6.18;;;;;;;12.80;100.00;99628.63;5029641;28;20025;-80
2022/09/12 02:10:18;;;;;;;7.05;5.50;;;;;;;12.68;100.00;99614.50;5029339;28;20749;-80
2022/09/12 02:12:57;;;;;;;6.40;5.80;;;;;;;12.69;100.00;99620.56;5029394;28;20034;-80
2022/09/12 02:15:28;;;;;;;10.00;5.68;;;;;;;12.58;100.00;99610.72;5029287;28;20049;-80
2022/09/12 02:17:57;;;;;;;8.10;5.32;;;;;;;12.57;100.00;99622.09;5031146;28;20183;-80
2022/09/12 02:20:28;;;;;;;9.02;5.85;;;;;;;12.49;100.00;99613.84;5033061;28;20656;-80
2022/09/12 02:22:56;;;;;;;10.55;5.95;;;;;;;12.49;100.00;99606.00;5033185;28;20037;-80
2022/09/12 02:25:24;;;;;;;6.10;5.50;;;;;;;12.53;100.00;99620.56;5032896;28;20117;-80
2022/09/12 02:28:00;;;;;;;15.23;6.25;;;;;;;12.52;100.00;99618.06;5033007;28;20116;-80
2022/09/12 02:30:34;;;;;;;7.20;5.68;;;;;;;12.51;100.00;99617.19;5032914;28;20022;-80
2022/09/12 02:33:06;;;;;;;9.88;5.55;;;;;;;12.42;100.00;99595.03;5033078;28;20029;-80
2022/09/12 02:35:31;;;;;;;8.85;5.63;;;;;;;12.55;100.00;99623.94;5033039;28;20113;-80
2022/09/12 02:38:04;;;;;;;6.63;5.88;;;;;;;12.57;100.00;99626.47;5032969;28;20770;-80
2022/09/12 02:40:31;;;;;;;7.53;5.65;;;;;;;12.55;100.00;99617.88;5045220;28;20128;-80
2022/09/12 02:42:57;;;;;;;7.30;5.82;;;;;;;12.52;100.00;99621.50;5095574;28;20020;-80
2022/09/12 02:45:23;;;;;;;8.32;6.07;;;;;;;12.58;100.00;99628.16;5095287;28;20111;-80
2022/09/12 02:48:03;;;;;;;10.25;6.00;;;;;;;12.60;100.00;99626.28;5095483;28;20107;-80
2022/09/12 02:50:29;;;;;;;6.90;6.00;;;;;;;12.56;100.00;99612.56;5095119;28;20544;-80
2022/09/12 02:52:58;;;;;;;8.27;5.85;;;;;;;12.59;100.00;99609.78;5095225;28;20099;-80
2022/09/12 02:55:25;;;;;;;8.32;6.05;;;;;;;12.60;100.00;99614.09;5095141;28;20047;-80
2022/09/12 02:57:50;;;;;;;7.53;6.10;;;;;;;12.58;100.00;99617.72;5095414;28;20024;-80
2022/09/12 03:00:16;;;;;;;11.38;6.28;;;;;;;12.67;100.00;99625.03;5095084;28;20481;-80
2022/09/12 03:03:15;;;;;;;8.20;5.93;;;;;;;12.69;100.00;99633.66;5095122;28;20043;-80
2022/09/12 03:06:01;;;;;;;6.20;5.60;;;;;;;12.64;100.00;99612.13;5032152;28;20049;-80
2022/09/12 03:08:55;;;;;;;8.65;6.40;;;;;;;12.66;100.00;99616.34;5032150;28;20033;-80
2022/09/12 03:12:01;;;;;;;8.32;6.15;;;;;;;12.70;100.00;99623.09;5032158;28;20038;-80
2022/09/12 03:14:46;;;;;;;8.20;6.95;;;;;;;12.74;100.00;99623.78;4973278;28;20507;-80
2022/09/12 03:17:30;;;;;;;6.93;6.03;;;;;;;12.76;100.00;99626.28;4973187;28;20114;-80
2022/09/12 03:20:09;;;;;;;8.07;6.05;;;;;;;12.75;100.00;99620.22;4973207;28;20642;-80
2022/09/12 03:22:55;;;;;;;9.20;6.82;;;;;;;12.76;100.00;99618.44;4973307;28;20109;-80
2022/09/12 03:26:09;;;;;;;8.65;6.50;;;;;;;12.76;100.00;99611.44;4972945;28;20038;-80
2022/09/12 03:28:36;;;;;;;8.68;6.50;;;;;;;12.74;100.00;99602.88;4934127;29;20039;-80
2022/09/12 03:31:13;;;;;;;8.70;6.80;;;;;;;12.71;100.00;99603.88;4934668;29;20047;-80
2022/09/12 03:33:38;;;;;;;7.10;5.90;;;;;;;12.70;100.00;99599.56;4934593;29;20147;-80
2022/09/12 03:36:04;;;;;;;8.57;6.53;;;;;;;12.70;100.00;99606.56;4934564;29;20526;-80
2022/09/12 03:38:30;;;;;;;11.93;6.65;;;;;;;12.72;100.00;99610.81;4934257;29;20035;-80
2022/09/12 03:40:55;;;;;;;10.75;6.57;;;;;;;12.69;100.00;99610.97;4934732;29;20429;-80
2022/09/12 03:43:20;;;;;;;9.48;6.40;;;;;;;12.65;100.00;99603.38;4934181;29;20544;-80
2022/09/12 03:45:50;;;;;;;11.80;6.72;;;;;;;12.65;100.00;99611.22;4934329;29;20118;-80
2022/09/12 03:48:15;;;;;;;7.80;6.07;;;;;;;12.68;100.00;99611.03;4934163;29;20428;-80
2022/09/12 03:50:40;;;;;;;10.10;6.97;;;;;;;12.69;100.00;99616.19;4944396;28;20042;-80
2022/09/12 03:53:06;;;;;;;8.63;6.80;;;;;;;12.72;100.00;99621.25;4972744;28;20038;-80
2022/09/12 03:55:31;;;;;;;10.65;6.82;;;;;;;12.74;100.00;99622.00;4972550;28;20023;-80
2022/09/12 03:57:56;;;;;;;7.38;6.57;;;;;;;12.72;100.00;99616.03;4972501;28;20105;-80
2022/09/12 04:00:22;;;;;;;7.30;6.00;;;;;;;12.72;100.00;99621.25;4972452;28;20468;-80
2022/09/12 04:02:47;;;;;;;8.10;6.47;;;;;;;12.78;100.00;99627.91;4972568;28;20062;-80
2022/09/12 04:05:13;;;;;;;10.88;7.35;;;;;;;12.78;100.00;99622.66;5028091;28;20040;-80
2022/09/12 04:07:38;;;;;;;8.38;6.80;;;;;;;12.74;100.00;99621.16;5093893;28;20425;-80
2022/09/12 04:10:04;;;;;;;10.77;6.38;;;;;;;12.80;100.00;99626.03;5093766;28;20028;-80
2022/09/12 04:12:30;;;;;;;10.32;7.43;;;;;;;12.81;100.00;99626.88;5093788;28;20019;-80
2022/09/12 04:14:55;;;;;;;10.80;6.40;;;;;;;12.82;100.00;99623.34;5093910;28;20426;-80
2022/09/12 04:17:20;;;;;;;8.15;6.68;;;;;;;12.88;100.00;99631.66;5093836;28;20044;-80
2022/09/12 04:19:46;;;;;;;8.82;6.68;;;;;;;12.90;100.00;99636.84;5093678;28;20024;-80
2022/09/12 04:22:11;;;;;;;9.18;7.22;;;;;;;12.90;100.00;99632.44;5093420;28;20027;-80
2022/09/12 04:24:36;;;;;;;9.20;7.00;;;;;;;12.90;100.00;99629.81;5093372;28;20024;-80
2022/09/12 04:27:02;;;;;;;8.63;7.25;;;;;;;12.85;100.00;99615.31;5093653;28;20027;-80
2022/09/12 04:29:28;;;;;;;7.82;6.57;;;;;;;12.95;100.00;99630.41;5093368;28;20484;-80
2022/09/12 04:31:53;;;;;;;10.70;6.90;;;;;;;12.95;100.00;99632.19;5093359;28;20330;-80
2022/09/12 04:34:19;;;;;;;8.68;6.57;;;;;;;13.00;100.00;99645.81;5093147;28;20049;-80
2022/09/12 04:36:44;;;;;;;7.47;6.30;;;;;;;12.96;100.00;99629.47;5093328;28;20020;-80
2022/09/12 04:39:10;;;;;;;7.82;6.63;;;;;;;12.97;100.00;99632.91;5093449;28;20035;-80
2022/09/12 04:41:38;;;;;;;8.48;6.53;;;;;;;13.00;100.00;99630.13;5090997;28;20468;-80
2022/09/12 04:44:06;;;;;;;6.63;5.93;;;;;;;13.08;100.00;99638.38;5093195;28;20061;-80
2022/09/12 04:46:35;;;;;;;8.50;6.40;;;;;;;13.03;100.00;99623.91;5092926;28;20027;-80
2022/09/12 04:49:01;;;;;;;7.25;6.30;;;;;;;13.10;100.00;99635.69;5092909;28;20063;-80
2022/09/12 04:51:30;;;;;;;8.65;6.60;;;;;;;13.16;100.00;99641.41;5092726;28;20036;-80
2022/09/12 04:53:58;;;;;;;7.80;6.50;;;;;;;13.15;100.00;99624.03;5092832;28;20416;-80
2022/09/12 04:56:25;;;;;;;9.50;6.57;;;;;;;13.22;100.00;99635.84;5092835;28;20076;-80
2022/09/12 04:58:51;;;;;;;8.18;6.68;;;;;;;13.27;100.00;99637.34;5092832;28;20023;-80
2022/09/12 05:01:18;;;;;;;7.53;6.50;;;;;;;13.36;100.00;99632.44;5092687;28;20382;-80
2022/09/12 05:03:45;;;;;;;7.80;6.40;;;;;;;13.48;100.00;99644.81;5092730;28;20020;-81
2022/09/12 05:06:24;;;;;;;7.68;6.40;;;;;;;13.63;100.00;99650.91;5092922;28;20488;-80
2022/09/12 05:08:51;;;;;;;8.45;6.80;;;;;;;13.81;100.00;99648.97;5092886;28;20158;-80
2022/09/12 05:11:20;;;;;;;9.38;6.78;;;;;;;13.86;100.00;99644.31;5092434;28;20156;-80
2022/09/12 05:13:46;;;;;;;6.28;5.68;;;;;;;13.98;100.00;99638.31;5092707;28;20027;-80
2022/09/12 05:16:14;;;;;;;7.03;5.55;;;;;;;14.19;100.00;99641.41;5092553;28;20020;-80
2022/09/12 05:18:39;;;;;;;9.18;6.72;;;;;;;14.41;100.00;99651.41;5092407;28;20020;-80
2022/09/12 05:21:08;;;;;;;8.60;6.70;;;;;;;14.69;100.00;99652.31;5092474;28;20020;-80
2022/09/12 05:23:34;;;;;;;11.00;6.53;;;;;;;14.85;100.00;99646.94;5092330;28;20035;-81
2022/09/12 05:26:00;;;;;;;7.00;6.20;;;;;;;14.94;100.00;99657.66;5092888;28;20043;-81
2022/09/12 05:28:34;;;;;;;7.60;5.70;;;;;;;14.95;100.00;99654.09;5092369;28;20024;-81
2022/09/12 05:31:03;;;;;;;8.48;5.78;;;;;;;15.20;100.00;99661.22;5092429;28;20460;-81
2022/09/12 05:33:29;;;;;;;7.82;5.50;;;;;;;15.45;100.00;99664.84;5091998;28;20059;-81
2022/09/12 05:35:55;;;;;;;9.32;6.13;;;;;;;15.61;100.00;99662.88;5092700;28;20026;-80
2022/09/12 05:38:20;;;;;;;7.47;6.30;;;;;;;15.81;100.00;99658.13;5091950;28;20083;-81
2022/09/12 05:40:45;;;;;;;8.43;5.85;;;;;;;15.92;100.00;99664.28;5092279;28;20085;-80
2022/09/12 05:43:11;;;;;;;9.70;5.57;;;;;;;16.13;100.00;99669.03;5092139;28;20028;-81
2022/09/12 05:45:37;;;;;;;8.45;5.82;;;;;;;16.41;100.00;99679.31;5091914;28;20051;-81
2022/09/12 05:48:03;;;;;;;8.10;6.30;;;;;;;16.52;100.00;99664.53;5091967;28;20031;-81
2022/09/12 05:50:28;;;;;;;7.47;5.53;;;;;;;16.85;100.00;99672.69;5092205;28;20360;-81
2022/09/12 05:52:53;;;;;;;7.40;5.28;;;;;;;17.09;100.00;99685.03;5092048;28;20024;-81
2022/09/12 05:55:19;;;;;;;9.07;5.32;;;;;;;17.20;99.47;99679.81;5091920;28;20112;-81
2022/09/12 05:57:45;;;;;;;5.82;5.22;;;;;;;17.22;98.33;99675.28;5092142;28;20444;-81
2022/09/12 06:00:12;;;;;;;6.72;5.10;;;;;;;17.25;97.35;99675.06;5091841;28;20020;-81
2022/09/12 06:02:37;;;;;;;9.18;5.72;;;;;;;17.30;95.94;99677.34;5091662;28;20607;-81
2022/09/12 06:05:03;;;;;;;9.40;5.57;;;;;;;17.51;96.22;99678.38;5092111;28;20135;-81
2022/09/12 06:07:28;;;;;;;5.60;4.82;;;;;;;17.77;95.56;99670.34;5091818;28;20020;-81
2022/09/12 06:09:53;;;;;;;8.00;5.20;;;;;;;18.11;94.58;99679.13;5092011;28;20016;-81
2022/09/12 06:12:19;;;;;;;6.40;4.90;;;;;;;18.31;93.52;99686.31;5091705;28;20012;-81
2022/09/12 06:14:45;;;;;;;6.78;4.95;;;;;;;18.44;92.37;99673.84;5091937;28;20512;-81
2022/09/12 06:17:10;;;;;;;5.70;5.05;;;;;;;18.51;91.41;99668.94;5091673;28;20028;-81
2022/09/12 06:19:36;;;;;;;9.32;5.43;;;;;;;18.71;89.80;99680.59;5091754;28;20116;-81
2022/09/12 06:22:01;;;;;;;9.40;5.53;;;;;;;18.97;89.06;99680.28;5091903;28;20024;-81
2022/09/12 06:24:27;;;;;;;12.18;5.30;;;;;;;19.30;87.59;99679.31;5091447;28;20425;-81
2022/09/12 06:26:52;;;;;;;5.68;4.80;;;;;;;19.44;85.20;99679.03;5090474;28;20020;-81
2022/09/12 06:29:18;;;;;;;11.20;4.75;;;;;;;19.33;84.94;99682.53;5091727;28;20027;-81
2022/09/12 06:31:44;;;;;;;6.03;4.40;;;;;;;19.13;85.45;99681.56;5091361;28;20431;-81
2022/09/12 06:34:12;;;;;;;8.80;4.80;;;;;;;19.40;84.45;99680.25;5091847;28;20021;-81
2022/09/12 06:36:41;;;;;;;7.13;4.35;;;;;;;19.68;83.11;99682.31;5091585;28;20030;-81
2022/09/12 06:39:11;;;;;;;7.40;4.85;;;;;;;19.39;82.86;99676.78;5091888;28;20028;-81
2022/09/12 06:41:37;;;;;;;7.03;4.40;;;;;;;19.09;84.00;99671.38;5091554;28;20027;-81
2022/09/12 06:44:03;;;;;;;6.40;4.20;;;;;;;18.96;84.28;99674.16;5091642;28;20368;-81
2022/09/12 06:46:30;;;;;;;7.43;3.72;;;;;;;18.75;84.33;99683.78;5091255;28;20025;-81
2022/09/12 06:48:57;;;;;;;5.65;4.00;;;;;;;18.55;84.98;99664.28;5091726;28;20059;-81
2022/09/12 06:51:23;;;;;;;4.95;4.03;;;;;;;18.50;86.27;99667.28;5091431;28;20027;-81
2022/09/12 06:53:49;;;;;;;7.88;4.25;;;;;;;18.64;86.20;99674.91;5091588;28;20032;-81
2022/09/12 06:56:18;;;;;;;6.80;4.57;;;;;;;18.71;86.09;99672.69;5091493;28;20468;-81
2022/09/12 06:58:44;;;;;;;5.82;4.45;;;;;;;18.77;84.81;99660.78;5091092;28;20020;-81
2022/09/12 07:01:17;;;;;;;7.60;4.43;;;;;;;19.52;83.80;99670.47;5091601;28;20031;-81
2022/09/12 07:03:47;;;;;;;4.90;3.80;;;;;;;20.52;80.97;99668.13;5092375;28;20028;-81
2022/09/12 07:06:15;;;;;;;5.30;3.78;;;;;;;21.57;78.57;99679.00;5101548;28;20073;-81
2022/09/12 07:08:41;;;;;;;7.43;4.10;;;;;;;22.51;75.11;99663.13;5097477;27;20027;-81
2022/09/12 07:11:19;;;;;;;6.18;3.60;;;;;;;24.84;69.27;99669.75;5109319;28;20149;-81
2022/09/12 07:13:47;;;;;;;8.00;3.42;;;;;;;26.96;62.03;99672.09;5114713;28;20070;-82
2022/09/12 07:16:13;;;;;;;3.85;3.35;;;;;;;26.62;59.32;99673.28;5115120;27;20019;-81
2022/09/12 07:18:39;;;;;;;7.72;3.45;;;;;;;24.84;60.73;99675.06;5114750;28;20019;-81
2022/09/12 07:21:11;;;;;;;5.13;2.85;;;;;;;23.62;63.73;99678.69;5113618;28;20030;-81
2022/09/12 07:23:37;;;;;;;4.65;3.05;;;;;;;24.04;64.53;99682.50;5114517;28;20051;-81
2022/09/12 07:26:03;;;;;;;4.47;3.08;;;;;;;24.11;63.12;99684.38;5114677;28;20011;-81
2022/09/12 07:28:30;;;;;;;7.50;2.88;;;;;;;25.44;61.73;99685.50;5114939;28;20516;-81
2022/09/12 07:30:56;;;;;;;7.50;3.03;;;;;;;29.23;54.18;99686.03;5114999;28;20098;-81
2022/09/12 07:33:25;;;;;;;6.30;3.00;;;;;;;31.52;47.09;99695.81;5115012;28;20024;-82
2022/09/12 07:35:53;;;;;;;4.22;2.97;;;;;;;30.20;47.51;99687.25;5114827;28;20023;-82
2022/09/12 07:38:18;;;;;;;7.90;3.78;;;;;;;28.16;50.65;99699.09;5114787;28;20114;-82
2022/09/12 07:40:43;;;;;;;5.28;3.10;;;;;;;26.45;54.08;99693.06;5113595;28;20091;-81
2022/09/12 07:43:09;;;;;;;7.45;3.45;;;;;;;26.47;54.04;99703.59;5113947;28;20024;-81
2022/09/12 07:45:34;;;;;;;5.55;3.03;;;;;;;25.87;55.89;99708.38;5113565;28;20023;-81
2022/09/12 07:48:00;;;;;;;4.93;3.65;;;;;;;26.24;56.44;99701.63;5095619;28;20032;-81
2022/09/12 07:50:25;;;;;;;6.03;2.83;;;;;;;28.53;52.49;99708.91;5093761;28;20016;-81
2022/09/12 07:52:53;;;;;;;6.53;2.75;;;;;;;28.08;52.32;99713.41;5092631;28;20658;-82
2022/09/12 07:55:19;;;;;;;4.63;2.85;;;;;;;29.91;48.49;99715.13;5093894;28;20056;-81
2022/09/12 07:57:49;;;;;;;4.90;3.00;;;;;;;28.84;48.31;99705.16;5097475;28;20031;-81
2022/09/12 08:00:15;;;;;;;5.28;3.05;;;;;;;26.82;52.29;99713.78;5119123;27;20015;-82
2022/09/12 08:02:40;;;;;;;3.90;2.85;;;;;;;24.82;55.08;99701.88;5130078;27;20020;-81
2022/09/12 08:05:06;;;;;;;6.65;3.13;;;;;;;23.19;59.29;99711.38;5114361;28;20051;-81
2022/09/12 08:07:33;;;;;;;4.72;3.50;;;;;;;22.44;62.10;99707.16;5123278;27;20087;-81
2022/09/12 08:09:59;;;;;;;8.02;2.97;;;;;;;21.97;62.74;99717.75;5134914;27;20460;-81
2022/09/12 08:12:26;;;;;;;6.40;3.10;;;;;;;21.76;64.28;99713.44;5134918;27;20148;-81
2022/09/12 08:14:51;;;;;;;4.85;3.40;;;;;;;21.48;65.46;99707.19;5133362;27;20020;-81
2022/09/12 08:17:16;;;;;;;4.43;2.88;;;;;;;21.25;64.99;99711.06;5114855;27;20027;-81
2022/09/12 08:19:42;;;;;;;6.00;3.38;;;;;;;21.29;66.21;99708.00;5113806;28;20019;-81
2022/09/12 08:22:08;;;;;;;6.45;2.80;;;;;;;21.60;65.62;99713.19;5113879;28;20470;-81
2022/09/12 08:24:34;;;;;;;4.57;3.63;;;;;;;21.77;65.02;99708.97;5112590;28;20015;-81
2022/09/12 08:26:59;;;;;;;5.13;3.33;;;;;;;21.57;64.28;99706.34;5113978;28;20019;-81
2022/09/12 08:29:24;;;;;;;9.38;3.53;;;;;;;21.19;66.14;99704.47;5113955;28;20015;-81
2022/09/12 08:31:50;;;;;;;7.97;3.70;;;;;;;20.77;67.94;99709.16;5113620;28;20019;-81
2022/09/12 08:34:17;;;;;;;4.60;3.13;;;;;;;20.51;69.68;99719.38;5132907;27;20019;-81
2022/09/12 08:36:42;;;;;;;5.03;3.30;;;;;;;20.22;70.48;99708.63;5133840;27;20023;-81
2022/09/12 08:39:11;;;;;;;6.95;3.63;;;;;;;19.89;72.40;99710.53;5134357;27;20447;-81
2022/09/12 08:41:44;;;;;;;4.07;3.20;;;;;;;19.76;73.62;99717.81;5133911;27;20375;-81
2022/09/12 08:44:34;;;;;;;7.68;3.60;;;;;;;19.89;73.35;99721.13;5134043;27;20015;-81
2022/09/12 08:47:24;;;;;;;3.85;3.00;;;;;;;20.10;72.53;99713.16;5134004;27;20027;-81
2022/09/12 08:50:08;;;;;;;4.78;2.90;;;;;;;20.31;70.50;99716.63;5133750;27;20437;-81
2022/09/12 08:52:36;;;;;;;6.95;3.25;;;;;;;20.43;68.82;99714.69;5133792;27;20118;-81
2022/09/12 08:55:05;;;;;;;7.63;3.45;;;;;;;20.50;68.65;99712.41;5133881;27;20062;-81
2022/09/12 08:57:31;;;;;;;6.18;3.00;;;;;;;20.55;67.28;99715.47;5133515;27;20029;-81
2022/09/12 08:59:56;;;;;;;5.05;3.00;;;;;;;20.68;66.99;99706.34;5133920;27;20019;-81
2022/09/12 09:02:51;;;;;;;4.32;2.90;;;;;;;20.66;66.45;99712.75;5133897;27;20023;-81
2022/09/12 09:05:40;;;;;;;4.10;2.90;;;;;;;20.92;67.51;99715.75;5133531;27;20386;-81
2022/09/12 09:08:43;;;;;;;4.70;3.10;;;;;;;21.29;66.61;99715.94;5117233;27;20536;-81
2022/09/12 09:11:29;;;;;;;6.70;2.95;;;;;;;21.20;66.31;99708.84;5113074;28;20413;-81
2022/09/12 09:14:47;;;;;;;5.63;3.20;;;;;;;21.06;67.00;99725.94;5113076;28;20073;-81
2022/09/12 09:17:33;;;;;;;3.65;2.97;;;;;;;20.86;67.66;99721.59;5113100;28;20066;-81
2022/09/12 09:20:12;;;;;;;5.13;3.35;;;;;;;20.68;67.19;99700.19;5112911;28;20352;-81
2022/09/12 09:22:50;;;;;;;5.13;3.13;;;;;;;20.48;66.37;99720.50;5112566;28;20059;-81
2022/09/12 09:25:23;;;;;;;8.00;3.40;;;;;;;20.33;67.80;99722.59;5112870;28;20019;-81
2022/09/12 09:28:09;;;;;;;4.93;2.97;;;;;;;20.28;68.62;99722.16;5112238;28;20024;-81
2022/09/12 09:30:35;;;;;;;5.32;2.90;;;;;;;20.27;67.23;99723.16;5111319;28;20368;-81
2022/09/12 09:33:03;;;;;;;4.10;2.97;;;;;;;20.09;65.35;99720.25;5112572;28;20157;-81
2022/09/12 09:35:43;;;;;;;5.45;2.92;;;;;;;19.83;65.49;99719.81;5113126;28;20035;-81
2022/09/12 09:38:26;;;;;;;3.17;2.72;;;;;;;19.77;67.14;99709.75;5112772;28;20102;-81
2022/09/12 09:41:03;;;;;;;5.53;3.10;;;;;;;19.88;66.03;99719.41;5112362;28;20015;-81
2022/09/12 09:43:29;;;;;;;6.72;3.20;;;;;;;19.97;66.03;99708.06;5112278;28;20023;-81
2022/09/12 09:45:58;;;;;;;6.35;2.90;;;;;;;20.10;65.32;99710.50;5112392;28;20026;-81
2022/09/12 09:48:26;;;;;;;5.13;3.13;;;;;;;20.09;65.25;99714.13;5112633;28;20019;-81
2022/09/12 09:50:52;;;;;;;5.82;3.10;;;;;;;20.02;65.91;99697.13;5112448;28;20057;-81
2022/09/12 09:53:35;;;;;;;7.43;3.03;;;;;;;20.17;66.31;99707.22;5112483;28;20066;-81
2022/09/12 09:56:06;;;;;;;5.22;3.00;;;;;;;20.23;65.96;99702.38;5112247;28;20030;-81
2022/09/12 09:58:33;;;;;;;4.90;3.30;;;;;;;20.29;65.53;99696.56;5112025;28;20126;-81
2022/09/12 10:01:01;;;;;;;7.07;3.30;;;;;;;20.26;64.98;99704.75;5112414;28;20023;-81
2022/09/12 10:03:32;;;;;;;3.47;3.03;;;;;;;20.30;65.93;99698.22;5112323;28;20034;-79
2022/09/12 10:06:00;;;;;;;5.40;2.92;;;;;;;20.36;65.43;99701.19;5112021;28;20046;-80
2022/09/12 10:08:31;;;;;;;8.77;3.00;;;;;;;20.50;66.50;99697.38;5131415;27;20019;-80
2022/09/12 10:11:15;;;;;;;5.25;3.15;;;;;;;20.81;66.06;99700.78;5133106;27;20375;-79
2022/09/12 10:13:52;;;;;;;5.88;2.72;;;;;;;20.84;65.39;99705.81;5132292;27;20023;-79
2022/09/12 10:16:20;;;;;;;4.25;3.00;;;;;;;20.91;66.03;99701.66;5108635;27;20024;-80
2022/09/12 10:18:48;;;;;;;4.97;3.05;;;;;;;20.98;65.48;99694.00;5111846;28;20019;-79
2022/09/12 10:21:22;;;;;;;5.75;3.38;;;;;;;20.97;65.15;99694.16;5112215;28;20024;-80
2022/09/12 10:23:58;;;;;;;5.78;3.25;;;;;;;20.75;64.57;99698.69;5110461;28;20367;-80
2022/09/12 10:26:25;;;;;;;7.75;3.70;;;;;;;20.40;64.82;99684.09;5112263;28;20023;-79
2022/09/12 10:28:53;;;;;;;5.45;3.33;;;;;;;20.21;66.29;99694.56;5111923;28;20030;-80
2022/09/12 10:31:40;;;;;;;6.25;3.33;;;;;;;20.06;67.28;99688.81;5104813;28;20346;-80
2022/09/12 10:34:19;;;;;;;4.30;3.10;;;;;;;20.05;67.87;99688.91;5092022;28;20028;-80
2022/09/12 10:36:45;;;;;;;5.77;2.70;;;;;;;20.11;68.13;99683.13;5092802;28;20031;-80
2022/09/12 10:39:17;;;;;;;3.53;2.88;;;;;;;20.09;66.83;99679.75;5100258;28;20020;-80
2022/09/12 10:41:43;;;;;;;3.05;2.67;;;;;;;20.05;67.02;99683.63;5095223;28;20024;-80
2022/09/12 10:44:27;;;;;;;4.55;3.08;;;;;;;19.86;66.84;99679.91;5095571;28;20028;-80
2022/09/12 10:46:53;;;;;;;5.07;3.38;;;;;;;19.83;67.06;99684.63;5095508;28;20020;-80
2022/09/12 10:49:23;;;;;;;5.38;3.20;;;;;;;19.60;67.39;99676.78;5095457;28;20073;-80
2022/09/12 10:51:49;;;;;;;5.03;2.53;;;;;;;19.64;69.27;99682.69;5095210;28;20106;-80
2022/09/12 10:54:18;;;;;;;3.17;2.88;;;;;;;19.63;68.49;99678.34;5095151;28;20092;-80
2022/09/12 10:56:58;;;;;;;4.18;2.80;;;;;;;19.69;68.57;99691.91;5095445;28;20089;-79
2022/09/12 10:59:33;;;;;;;;;;;;;;;19.70;68.47;99684.81;5095743;28;20025;-79
2022/09/12 11:02:23;;;;;;;7.35;3.28;;;;;;;19.74;68.36;99694.16;5094329;28;19957;-79
2022/09/12 11:05:10;;;;;;;3.17;2.88;;;;;;;19.66;68.63;99684.22;5125045;27;20068;-80
2022/09/12 11:07:47;;;;;;;9.07;3.20;;;;;;;19.54;68.06;99679.09;5124241;27;20019;-80
2022/09/12 11:10:36;;;;;;;5.20;3.20;;;;;;;19.32;68.67;99677.41;5115358;28;20023;-80
2022/09/12 11:13:13;;;;;;;4.22;2.90;;;;;;;19.10;68.75;99691.53;5094789;28;20020;-80
2022/09/12 11:16:08;;;;;;;4.97;3.20;;;;;;;18.85;69.64;99674.19;5094866;28;20470;-79
2022/09/12 11:18:50;;;;;;;5.05;2.95;;;;;;;18.93;70.17;99679.69;5094914;28;20020;-79
2022/09/12 11:21:43;;;;;;;3.30;2.58;;;;;;;18.87;70.18;99680.19;5132973;27;20023;-79
2022/09/12 11:24:27;;;;;;;3.20;2.88;;;;;;;18.87;70.50;99688.94;5135799;27;20020;-79
2022/09/12 11:27:18;;;;;;;9.27;3.00;;;;;;;18.91;70.70;99685.09;5124074;27;20345;-79
2022/09/12 11:29:58;;;;;;;3.55;2.70;;;;;;;18.89;69.53;99686.19;5094403;28;20042;-79
2022/09/12 11:32:51;;;;;;;3.65;2.80;;;;;;;18.89;69.08;99684.38;5094777;28;20031;-79
2022/09/12 11:35:26;;;;;;;4.43;2.75;;;;;;;19.01;69.76;99681.72;5093266;28;20050;-80
2022/09/12 11:38:25;;;;;;;6.25;2.97;;;;;;;19.29;70.14;99685.56;5094269;28;20016;-80
2022/09/12 11:41:22;;;;;;;4.50;2.70;;;;;;;19.75;70.50;99673.84;5093183;28;20369;-80
2022/09/12 11:43:55;;;;;;;5.13;3.10;;;;;;;19.81;66.86;99660.97;5094295;28;20072;-80
2022/09/12 11:46:28;;;;;;;4.45;2.67;;;;;;;20.03;68.01;99673.19;5094256;28;20055;-80
2022/09/12 11:49:15;;;;;;;4.05;3.03;;;;;;;20.30;68.20;99666.47;5093853;28;20027;-80
2022/09/12 11:51:50;;;;;;;3.10;2.80;;;;;;;20.57;67.06;99672.06;5094132;28;20020;-80